createdAt,value
2022-11-26T00:01:33.750Z,101845.97
2022-11-26T00:04:03.877Z,101854.75
2022-11-26T00:06:36.945Z,101852.34
2022-11-26T00:09:08.508Z,101865.22
2022-11-26T00:11:38.287Z,101872.03
2022-11-26T00:14:15.883Z,101879.09
2022-11-26T00:16:48.418Z,101813.56
2022-11-26T00:19:18.256Z,101880.75
2022-11-26T00:21:48.132Z,101878.84
2022-11-26T00:24:48.398Z,101860.69
2022-11-26T00:27:18.252Z,101882.44
2022-11-26T00:29:48.214Z,101888.47
2022-11-26T00:32:23.318Z,101882.34
2022-11-26T00:34:53.274Z,101894.03
2022-11-26T00:37:27.183Z,101891.31
2022-11-26T00:39:58.469Z,101892.88
2022-11-26T00:42:28.427Z,101889.41
2022-11-26T00:44:58.234Z,101895.75
2022-11-26T00:47:30.631Z,101903.88
2022-11-26T00:50:00.470Z,101903.38
2022-11-26T00:52:36.671Z,101910.97
2022-11-26T00:55:13.161Z,101913.53
2022-11-26T00:57:43.019Z,101910.75
2022-11-26T01:00:18.705Z,101905.19
2022-11-26T01:02:51.281Z,101921.63
2022-11-26T01:05:22.287Z,101918.03
2022-11-26T01:07:53.585Z,101922.00
2022-11-26T01:10:25.199Z,101934.06
2022-11-26T01:12:55.863Z,101933.13
2022-11-26T01:15:29.212Z,101901.78
2022-11-26T01:18:01.618Z,101934.00
2022-11-26T01:20:33.576Z,101935.59
2022-11-26T01:23:03.395Z,101933.34
2022-11-26T01:25:33.225Z,101938.09
2022-11-26T01:28:03.080Z,101946.44
2022-11-26T01:30:35.678Z,101930.44
2022-11-26T01:33:08.092Z,101941.56
2022-11-26T01:35:38.380Z,101892.38
2022-11-26T01:38:08.406Z,101966.84
2022-11-26T01:41:05.909Z,101968.16
2022-11-26T01:43:44.323Z,101975.78
2022-11-26T01:46:18.511Z,101920.13
2022-11-26T01:48:52.576Z,101983.66
2022-11-26T01:51:27.870Z,101966.34
2022-11-26T01:54:01.075Z,101960.44
2022-11-26T01:56:36.607Z,101913.75
2022-11-26T01:59:12.482Z,101984.53
2022-11-26T02:01:42.755Z,101991.03
2022-11-26T02:04:19.768Z,101956.50
2022-11-26T02:06:51.971Z,101981.34
2022-11-26T02:09:22.296Z,101999.16
2022-11-26T02:11:52.667Z,101964.47
2022-11-26T02:14:25.125Z,102006.09
2022-11-26T02:17:04.165Z,102006.69
2022-11-26T02:20:10.222Z,101985.53
2022-11-26T02:23:10.124Z,102006.16
2022-11-26T02:25:56.915Z,102015.84
2022-11-26T02:28:45.505Z,102023.75
2022-11-26T02:31:23.254Z,102022.34
2022-11-26T02:33:58.807Z,102015.00
2022-11-26T02:36:35.077Z,102024.91
2022-11-26T02:39:14.480Z,102024.47
2022-11-26T02:41:46.138Z,102024.53
2022-11-26T02:44:17.769Z,102029.81
2022-11-26T02:46:54.368Z,102038.44
2022-11-26T02:49:25.598Z,102030.59
2022-11-26T02:51:59.211Z,102043.34
2022-11-26T02:54:30.635Z,102045.44
2022-11-26T02:57:02.822Z,102049.03
2022-11-26T02:59:33.221Z,102053.22
2022-11-26T03:02:11.167Z,102043.69
2022-11-26T03:04:45.701Z,102058.22
2022-11-26T03:07:17.211Z,102013.94
2022-11-26T03:09:53.733Z,102053.16
2022-11-26T03:12:24.447Z,102064.84
2022-11-26T03:14:54.618Z,102059.63
2022-11-26T03:17:26.991Z,102057.03
2022-11-26T03:19:56.876Z,102048.53
2022-11-26T03:22:26.667Z,102071.72
2022-11-26T03:24:56.519Z,102059.66
2022-11-26T03:27:29.288Z,102060.91
2022-11-26T03:29:59.204Z,102017.06
2022-11-26T03:32:32.629Z,102056.88
2022-11-26T03:35:02.488Z,102059.78
2022-11-26T03:37:32.298Z,102059.59
2022-11-26T03:40:02.123Z,102056.41
2022-11-26T03:42:32.251Z,102074.47
2022-11-26T03:45:02.332Z,102064.13
2022-11-26T03:47:34.750Z,102061.44
2022-11-26T03:50:04.555Z,102065.88
2022-11-26T03:52:34.444Z,102067.94
2022-11-26T03:55:04.391Z,102007.34
2022-11-26T03:57:34.332Z,102061.53
2022-11-26T04:00:04.804Z,102050.41
2022-11-26T04:02:37.376Z,102052.59
2022-11-26T04:05:08.205Z,102035.34
2022-11-26T04:07:38.035Z,102066.78
2022-11-26T04:10:09.247Z,102058.22
2022-11-26T04:12:39.446Z,102003.41
2022-11-26T04:15:10.693Z,102027.16
2022-11-26T04:17:43.151Z,102060.03
2022-11-26T04:20:13.867Z,102044.53
2022-11-26T04:22:43.986Z,102051.63
2022-11-26T04:25:13.875Z,102058.16
2022-11-26T04:27:43.808Z,102064.66
2022-11-26T04:30:14.762Z,102068.94
2022-11-26T04:32:47.172Z,102068.78
2022-11-26T04:35:18.447Z,102080.47
2022-11-26T04:37:48.297Z,102077.75
2022-11-26T04:40:18.294Z,102077.16
2022-11-26T04:42:48.128Z,102085.75
2022-11-26T04:45:18.171Z,102090.16
2022-11-26T04:47:50.581Z,102000.16
2022-11-26T04:50:20.623Z,102072.16
2022-11-26T04:52:50.976Z,102091.03
2022-11-26T04:55:21.548Z,102103.09
2022-11-26T04:57:51.570Z,102117.91
2022-11-26T05:00:22.558Z,102109.38
2022-11-26T05:02:55.110Z,102124.84
2022-11-26T05:05:25.114Z,102118.31
2022-11-26T05:07:55.076Z,102124.84
2022-11-26T05:10:24.981Z,102121.84
2022-11-26T05:12:54.789Z,102126.88
2022-11-26T05:15:24.608Z,102114.06
2022-11-26T05:17:57.058Z,102140.72
2022-11-26T05:20:27.166Z,102136.84
2022-11-26T05:22:56.991Z,102148.41
2022-11-26T05:25:26.806Z,102141.59
2022-11-26T05:27:56.618Z,102064.59
2022-11-26T05:30:26.477Z,102118.50
2022-11-26T05:32:58.913Z,102072.38
2022-11-26T05:35:28.741Z,102093.00
2022-11-26T05:37:58.548Z,102155.31
2022-11-26T05:40:28.380Z,102149.06
2022-11-26T05:42:58.239Z,102155.41
2022-11-26T05:45:28.123Z,102154.56
2022-11-26T05:48:00.566Z,102145.06
2022-11-26T05:50:30.498Z,102091.47
2022-11-26T05:53:00.693Z,102151.22
2022-11-26T05:55:30.596Z,102066.34
2022-11-26T05:58:00.503Z,102164.88
2022-11-26T06:00:34.055Z,102157.84
2022-11-26T06:03:09.806Z,102154.94
2022-11-26T06:05:39.786Z,102170.94
2022-11-26T06:08:09.727Z,102162.47
2022-11-26T06:10:39.707Z,102167.81
2022-11-26T06:13:09.541Z,102192.88
2022-11-26T06:15:39.396Z,102194.91
2022-11-26T06:18:12.019Z,102159.34
2022-11-26T06:20:41.967Z,102156.41
2022-11-26T06:23:11.837Z,102195.59
2022-11-26T06:25:45.491Z,102198.13
2022-11-26T06:28:15.373Z,102204.56
2022-11-26T06:30:47.120Z,102210.00
2022-11-26T06:33:20.663Z,102141.91
2022-11-26T06:35:50.598Z,102144.06
2022-11-26T06:38:20.552Z,102165.97
2022-11-26T06:40:50.430Z,102187.13
2022-11-26T06:43:22.314Z,102224.91
2022-11-26T06:45:52.293Z,102229.38
2022-11-26T06:48:25.804Z,102235.03
2022-11-26T06:50:55.766Z,102232.91
2022-11-26T06:53:30.124Z,102249.06
2022-11-26T06:56:02.685Z,102237.06
2022-11-26T06:58:35.033Z,102196.06
2022-11-26T07:01:11.218Z,102178.53
2022-11-26T07:03:43.804Z,102248.16
2022-11-26T07:06:20.994Z,102231.50
2022-11-26T07:08:55.206Z,102251.41
2022-11-26T07:11:27.553Z,102254.50
2022-11-26T07:13:57.760Z,102254.00
2022-11-26T07:16:28.358Z,102258.41
2022-11-26T07:19:04.759Z,102238.22
2022-11-26T07:21:35.743Z,102217.06
2022-11-26T07:24:05.770Z,102262.66
2022-11-26T07:26:35.753Z,102263.25
2022-11-26T07:29:09.066Z,102258.25
2022-11-26T07:31:42.201Z,102177.50
2022-11-26T07:34:14.728Z,102258.63
2022-11-26T07:36:45.347Z,102246.56
2022-11-26T07:39:15.345Z,102269.25
2022-11-26T07:41:45.187Z,102205.56
2022-11-26T07:44:19.722Z,102272.25
2022-11-26T07:46:53.152Z,102271.97
2022-11-26T07:49:25.694Z,102271.19
2022-11-26T07:51:55.617Z,102276.66
2022-11-26T07:54:25.474Z,102284.25
2022-11-26T07:56:56.465Z,102288.88
2022-11-26T07:59:26.563Z,102289.03
2022-11-26T08:02:00.221Z,102226.31
2022-11-26T08:04:32.895Z,102275.78
2022-11-26T08:07:08.851Z,102291.38
2022-11-26T08:09:39.816Z,102296.44
2022-11-26T08:12:10.861Z,102274.66
2022-11-26T08:14:40.879Z,102299.06
2022-11-26T08:17:10.907Z,102309.94
2022-11-26T08:19:43.442Z,102313.47
2022-11-26T08:22:13.360Z,102283.66
2022-11-26T08:24:49.752Z,102315.72
2022-11-26T08:27:19.673Z,102314.78
2022-11-26T08:29:56.739Z,102319.50
2022-11-26T08:32:30.049Z,102326.28
2022-11-26T08:35:06.018Z,102327.84
2022-11-26T08:37:39.123Z,102259.41
2022-11-26T08:40:13.868Z,102310.72
2022-11-26T08:42:43.970Z,102261.53
2022-11-26T08:45:19.808Z,102318.25
2022-11-26T08:47:49.781Z,102316.97
2022-11-26T08:50:22.345Z,102316.44
2022-11-26T08:52:53.242Z,102332.22
2022-11-26T08:55:26.923Z,102330.28
2022-11-26T08:57:56.967Z,102330.84
2022-11-26T09:00:26.869Z,102334.63
2022-11-26T09:02:56.813Z,102278.78
2022-11-26T09:05:30.609Z,102333.72
2022-11-26T09:08:04.156Z,102328.50
2022-11-26T09:10:34.104Z,102282.19
2022-11-26T09:13:04.021Z,102305.47
2022-11-26T09:15:34.980Z,102271.16
2022-11-26T09:18:04.876Z,102334.94
2022-11-26T09:20:38.404Z,102283.19
2022-11-26T09:23:08.329Z,102291.91
2022-11-26T09:25:40.977Z,102341.44
2022-11-26T09:28:10.945Z,102294.13
2022-11-26T09:30:42.829Z,102290.03
2022-11-26T09:33:14.786Z,102350.00
2022-11-26T09:35:47.321Z,102350.00
2022-11-26T09:38:18.238Z,102355.63
2022-11-26T09:40:52.753Z,102362.72
2022-11-26T09:43:31.034Z,102368.25
2022-11-26T09:46:03.343Z,102381.31
2022-11-26T09:48:36.288Z,102356.47
2022-11-26T09:51:17.314Z,102369.53
2022-11-26T09:53:51.841Z,102355.00
2022-11-26T09:56:28.929Z,102375.09
2022-11-26T09:59:02.861Z,102381.16
2022-11-26T10:01:35.522Z,102384.19
2022-11-26T10:04:12.324Z,102381.63
2022-11-26T10:06:57.809Z,102390.31
2022-11-26T10:09:44.230Z,102381.88
2022-11-26T10:12:26.364Z,102338.72
2022-11-26T10:15:03.038Z,102397.00
2022-11-26T10:17:44.596Z,102345.09
2022-11-26T10:20:58.398Z,102390.66
2022-11-26T10:23:36.240Z,102395.22
2022-11-26T10:26:10.628Z,102392.97
2022-11-26T10:28:46.450Z,102351.03
2022-11-26T10:31:24.489Z,102395.84
2022-11-26T10:33:58.867Z,102369.41
2022-11-26T10:36:35.665Z,102383.97
2022-11-26T10:39:16.848Z,102366.69
2022-11-26T10:41:50.021Z,102379.91
2022-11-26T10:44:37.031Z,102361.50
2022-11-26T10:47:25.260Z,102333.28
2022-11-26T10:49:58.514Z,102320.75
2022-11-26T10:52:31.581Z,102388.75
2022-11-26T10:55:23.965Z,102381.41
2022-11-26T10:57:56.510Z,102385.81
2022-11-26T11:00:33.960Z,102374.91
2022-11-26T11:03:06.510Z,102388.75
2022-11-26T11:05:37.803Z,102300.09
2022-11-26T11:08:09.805Z,102327.13
2022-11-26T11:10:56.984Z,102329.69
2022-11-26T11:13:41.972Z,102332.88
2022-11-26T11:16:13.479Z,102389.97
2022-11-26T11:18:52.673Z,102377.22
2022-11-26T11:21:23.833Z,102334.41
2022-11-26T11:24:11.515Z,102396.91
2022-11-26T11:26:47.120Z,102370.81
2022-11-26T11:29:32.974Z,102373.81
2022-11-26T11:32:04.840Z,102393.59
2022-11-26T11:34:38.783Z,102375.63
2022-11-26T11:37:17.130Z,102377.13
2022-11-26T11:39:47.561Z,102346.63
2022-11-26T11:42:28.260Z,102395.41
2022-11-26T11:45:00.841Z,102389.34
2022-11-26T11:47:40.081Z,102385.63
2022-11-26T11:50:24.013Z,102323.91
2022-11-26T11:53:08.759Z,102384.44
2022-11-26T11:55:55.856Z,102380.03
2022-11-26T11:58:47.325Z,102324.88
2022-11-26T12:01:31.569Z,102368.28
2022-11-26T12:04:19.388Z,102373.75
2022-11-26T12:07:05.427Z,102373.97
2022-11-26T12:09:47.803Z,102315.56
2022-11-26T12:12:24.669Z,102346.38
2022-11-26T12:15:07.799Z,102364.81
2022-11-26T12:17:46.349Z,102369.50
2022-11-26T12:20:22.898Z,102365.41
2022-11-26T12:23:00.225Z,102303.28
2022-11-26T12:25:36.828Z,102366.00
2022-11-26T12:28:14.998Z,102346.84
2022-11-26T12:30:56.666Z,102351.47
2022-11-26T12:33:36.719Z,102319.19
2022-11-26T12:36:17.495Z,102338.09
2022-11-26T12:38:54.318Z,102302.59
2022-11-26T12:41:28.295Z,102365.59
2022-11-26T12:44:07.220Z,102350.03
2022-11-26T12:46:46.103Z,102306.19
2022-11-26T12:49:25.040Z,102355.69
2022-11-26T12:52:07.008Z,102355.16
2022-11-26T12:54:45.270Z,102353.19
2022-11-26T12:57:23.078Z,102365.72
2022-11-26T13:00:06.355Z,102359.47
2022-11-26T13:02:41.040Z,102350.69
2022-11-26T13:05:20.565Z,102357.53
2022-11-26T13:08:20.627Z,102345.44
2022-11-26T13:11:10.509Z,102357.31
2022-11-26T13:13:50.868Z,102303.22
2022-11-26T13:16:34.961Z,102309.34
2022-11-26T13:19:20.522Z,102322.41
2022-11-26T13:22:09.248Z,102368.81
2022-11-26T13:25:01.306Z,102383.22
2022-11-26T13:27:50.946Z,102380.63
2022-11-26T13:30:34.574Z,102358.03
2022-11-26T13:33:29.157Z,102375.66
2022-11-26T13:36:30.420Z,102371.94
2022-11-26T13:39:13.979Z,102377.34
2022-11-26T13:42:03.035Z,102343.56
2022-11-26T13:45:18.403Z,102364.00
2022-11-26T13:47:53.815Z,102339.88
2022-11-26T13:50:29.459Z,102376.63
2022-11-26T13:53:07.907Z,102380.91
2022-11-26T13:55:48.391Z,102338.41
2022-11-26T13:58:26.296Z,102373.91
2022-11-26T14:00:57.250Z,102365.81
2022-11-26T14:03:49.055Z,102345.44
2022-11-26T14:06:20.000Z,102292.00
2022-11-26T14:08:55.139Z,102335.19
2022-11-26T14:11:59.709Z,102353.44
2022-11-26T14:14:35.047Z,102287.69
2022-11-26T14:17:20.794Z,102344.00
2022-11-26T14:20:10.245Z,102343.91
2022-11-26T14:22:41.941Z,102280.69
2022-11-26T14:25:17.105Z,102351.56
2022-11-26T14:27:56.573Z,102360.69
2022-11-26T14:30:28.839Z,102305.47
2022-11-26T14:33:08.561Z,102359.34
2022-11-26T14:35:40.302Z,102348.78
2022-11-26T14:38:26.179Z,102339.63
2022-11-26T14:41:03.333Z,102340.31
2022-11-26T14:43:35.308Z,102324.50
2022-11-26T14:46:08.896Z,102355.66
2022-11-26T14:48:45.291Z,102271.59
2022-11-26T14:51:24.120Z,102295.25
2022-11-26T14:53:57.341Z,102355.50
2022-11-26T14:56:32.208Z,102303.59
2022-11-26T14:59:04.772Z,102357.28
2022-11-26T15:01:35.492Z,102307.13
2022-11-26T15:04:07.775Z,102342.22
2022-11-26T15:06:42.600Z,102346.59
2022-11-26T15:09:19.159Z,102301.78
2022-11-26T15:12:02.439Z,102348.75
2022-11-26T15:14:44.510Z,102337.53
2022-11-26T15:17:18.720Z,102334.91
2022-11-26T15:19:51.900Z,102306.88
2022-11-26T15:22:24.941Z,102309.59
2022-11-26T15:24:56.549Z,102340.38
2022-11-26T15:27:37.529Z,102341.66
2022-11-26T15:30:21.496Z,102317.16
2022-11-26T15:32:58.654Z,102261.56
2022-11-26T15:35:29.268Z,102298.19
2022-11-26T15:37:59.443Z,102328.06
2022-11-26T15:40:33.616Z,102329.00
2022-11-26T15:43:07.127Z,102305.03
2022-11-26T15:45:40.712Z,102333.72
2022-11-26T15:48:27.946Z,102332.41
2022-11-26T15:51:13.633Z,102334.88
2022-11-26T15:53:51.371Z,102260.84
2022-11-26T15:56:23.763Z,102270.03
2022-11-26T15:59:00.681Z,102262.66
2022-11-26T16:01:35.896Z,102263.63
2022-11-26T16:04:07.269Z,102291.63
2022-11-26T16:06:40.100Z,102333.91
2022-11-26T16:09:28.466Z,102258.28
2022-11-26T16:12:02.658Z,102331.91
2022-11-26T16:14:38.168Z,102342.16
2022-11-26T16:17:14.259Z,102339.09
2022-11-26T16:19:50.879Z,102264.25
2022-11-26T16:22:28.217Z,102347.66
2022-11-26T16:25:07.249Z,102294.47
2022-11-26T16:27:38.054Z,102301.47
2022-11-26T16:30:17.719Z,102280.69
2022-11-26T16:32:47.590Z,102293.06
2022-11-26T16:35:44.030Z,102348.47
2022-11-26T16:38:07.615Z,102339.38
2022-11-26T16:40:38.556Z,102285.97
2022-11-26T16:43:08.423Z,102299.63
2022-11-26T16:45:41.154Z,102251.84
2022-11-26T16:48:22.807Z,102346.28
2022-11-26T16:50:54.433Z,102348.72
2022-11-26T16:53:24.528Z,102285.81
2022-11-26T16:55:56.770Z,102345.47
2022-11-26T16:58:30.519Z,102297.13
2022-11-26T17:01:04.874Z,102323.44
2022-11-26T17:03:35.441Z,102332.97
2022-11-26T17:06:12.814Z,102340.31
2022-11-26T17:08:49.496Z,102337.47
2022-11-26T17:11:21.282Z,102285.44
2022-11-26T17:13:52.270Z,102318.84
2022-11-26T17:16:26.654Z,102283.97
2022-11-26T17:18:56.634Z,102239.22
2022-11-26T17:21:27.578Z,102232.88
2022-11-26T17:23:58.531Z,102256.78
2022-11-26T17:26:28.578Z,102320.59
2022-11-26T17:28:58.550Z,102304.72
2022-11-26T17:31:31.600Z,102283.63
2022-11-26T17:34:02.565Z,102312.81
2022-11-26T17:36:36.831Z,102326.28
2022-11-26T17:39:08.222Z,102330.66
2022-11-26T17:41:38.146Z,102285.03
2022-11-26T17:44:08.090Z,102332.91
2022-11-26T17:47:08.949Z,102305.91
2022-11-26T17:49:30.922Z,102334.09
2022-11-26T17:52:00.863Z,102327.41
2022-11-26T17:54:30.832Z,102261.13
2022-11-26T17:57:01.923Z,102311.34
2022-11-26T17:59:31.954Z,102254.72
2022-11-26T18:02:05.693Z,102259.91
2022-11-26T18:04:36.504Z,102275.16
2022-11-26T18:07:10.293Z,102253.34
2022-11-26T18:09:40.698Z,102280.66
2022-11-26T18:12:23.160Z,102294.41
2022-11-26T18:14:54.816Z,102313.75
2022-11-26T18:17:28.419Z,102333.72
2022-11-26T18:19:59.056Z,102324.16
2022-11-26T18:22:30.467Z,102329.41
2022-11-26T18:25:01.398Z,102311.78
2022-11-26T18:27:33.759Z,102283.53
2022-11-26T18:30:04.816Z,102223.75
2022-11-26T18:32:38.730Z,102251.66
2022-11-26T18:35:10.906Z,102333.13
2022-11-26T18:37:42.514Z,102337.44
2022-11-26T18:40:17.116Z,102331.22
2022-11-26T18:42:47.293Z,102343.56
2022-11-26T18:45:19.394Z,102275.84
2022-11-26T18:47:51.967Z,102338.16
2022-11-26T18:50:22.299Z,102274.66
2022-11-26T18:52:52.365Z,102306.06
2022-11-26T18:55:23.335Z,102311.31
2022-11-26T18:57:53.251Z,102319.81
2022-11-26T19:00:23.787Z,102233.91
2022-11-26T19:02:56.369Z,102299.13
2022-11-26T19:05:26.379Z,102309.78
2022-11-26T19:07:56.484Z,102298.25
2022-11-26T19:10:26.857Z,102238.50
2022-11-26T19:12:56.870Z,102232.38
2022-11-26T19:15:27.859Z,102238.44
2022-11-26T19:18:00.756Z,102276.63
2022-11-26T19:20:30.633Z,102291.69
2022-11-26T19:23:01.644Z,102253.34
2022-11-26T19:25:32.077Z,102298.44
2022-11-26T19:28:04.958Z,102288.50
2022-11-26T19:30:35.251Z,102284.88
2022-11-26T19:33:12.101Z,102237.31
2022-11-26T19:35:43.177Z,102197.81
2022-11-26T19:38:17.121Z,102234.13
2022-11-26T19:40:48.868Z,102304.69
2022-11-26T19:43:20.938Z,102278.53
2022-11-26T19:45:52.649Z,102300.03
2022-11-26T19:48:27.696Z,102285.06
2022-11-26T19:50:59.588Z,102297.69
2022-11-26T19:53:32.527Z,102271.13
2022-11-26T19:56:04.963Z,102229.06
2022-11-26T19:58:40.325Z,102288.13
2022-11-26T20:01:14.976Z,102243.38
2022-11-26T20:03:50.284Z,102260.38
2022-11-26T20:06:22.807Z,102248.03
2022-11-26T20:08:53.455Z,102293.81
2022-11-26T20:11:28.362Z,102205.50
2022-11-26T20:14:03.665Z,102232.59
2022-11-26T20:16:36.798Z,102295.50
2022-11-26T20:19:16.524Z,102190.28
2022-11-26T20:21:48.918Z,102282.72
2022-11-26T20:24:21.482Z,102282.63
2022-11-26T20:26:53.272Z,102265.09
2022-11-26T20:29:29.843Z,102276.50
2022-11-26T20:32:01.086Z,102207.28
2022-11-26T20:34:33.781Z,102209.28
2022-11-26T20:37:04.232Z,102206.31
2022-11-26T20:39:35.833Z,102274.75
2022-11-26T20:42:07.098Z,102265.53
2022-11-26T20:44:37.806Z,102248.66
2022-11-26T20:47:08.003Z,102273.81
2022-11-26T20:49:43.113Z,102277.41
2022-11-26T20:52:13.405Z,102246.75
2022-11-26T20:54:45.177Z,102215.88
2022-11-26T20:57:18.843Z,102208.88
2022-11-26T20:59:50.120Z,102281.16
2022-11-26T21:02:22.498Z,102274.56
2022-11-26T21:04:56.152Z,102237.38
2022-11-26T21:07:27.554Z,102225.25
2022-11-26T21:09:59.114Z,102295.38
2022-11-26T21:12:29.153Z,102238.75
2022-11-26T21:14:59.083Z,102303.59
2022-11-26T21:17:30.004Z,102262.97
2022-11-26T21:20:02.561Z,102318.66
2022-11-26T21:22:33.466Z,102325.19
2022-11-26T21:25:04.430Z,102327.53
2022-11-26T21:27:35.126Z,102282.81
2022-11-26T21:30:05.316Z,102281.94
2022-11-26T21:32:35.198Z,102274.06
2022-11-26T21:35:08.550Z,102345.25
2022-11-26T21:37:38.523Z,102284.84
2022-11-26T21:40:10.132Z,102354.47
2022-11-26T21:42:40.034Z,102357.50
2022-11-26T21:45:12.209Z,102324.13
2022-11-26T21:47:44.194Z,102343.72
2022-11-26T21:50:17.901Z,102284.41
2022-11-26T21:52:49.360Z,102350.47
2022-11-26T21:55:21.743Z,102319.94
2022-11-26T21:57:51.765Z,102347.84
2022-11-26T22:00:23.366Z,102301.91
2022-11-26T22:02:53.373Z,102333.28
2022-11-26T22:05:25.980Z,102327.66
2022-11-26T22:07:56.991Z,102285.88
2022-11-26T22:10:29.743Z,102308.59
2022-11-26T22:13:01.982Z,102323.91
2022-11-26T22:15:31.994Z,102254.31
2022-11-26T22:18:02.957Z,102328.19
2022-11-26T22:20:36.517Z,102323.22
2022-11-26T22:23:07.362Z,102310.56
2022-11-26T22:25:37.602Z,102315.88
2022-11-26T22:28:07.927Z,102316.19
2022-11-26T22:30:39.487Z,102253.91
2022-11-26T22:33:09.652Z,102228.75
2022-11-26T22:35:43.223Z,102240.66
2022-11-26T22:38:13.470Z,102221.94
2022-11-26T22:40:43.363Z,102282.88
2022-11-26T22:43:13.276Z,102250.47
2022-11-26T22:45:43.235Z,102282.38
2022-11-26T22:48:14.659Z,102285.47
2022-11-26T22:50:53.086Z,102226.81
2022-11-26T22:53:23.567Z,102259.69
2022-11-26T22:55:55.663Z,102278.34
2022-11-26T22:58:28.644Z,102243.06
2022-11-26T23:01:01.743Z,102191.41
2022-11-26T23:03:32.819Z,102144.41
2022-11-26T23:06:09.395Z,102249.81
2022-11-26T23:08:40.106Z,102229.53
2022-11-26T23:11:19.240Z,102234.16
2022-11-26T23:13:50.819Z,102247.13
2022-11-26T23:16:22.686Z,102242.91
2022-11-26T23:18:56.550Z,102238.28
2022-11-26T23:21:30.571Z,102251.16
2022-11-26T23:24:00.861Z,102252.06
2022-11-26T23:26:33.430Z,102246.09
2022-11-26T23:29:05.720Z,102248.44
2022-11-26T23:31:38.466Z,102212.06
2022-11-26T23:34:09.225Z,102225.31
2022-11-26T23:36:42.133Z,102229.88
2022-11-26T23:39:15.148Z,102245.44
2022-11-26T23:41:45.211Z,102205.22
2022-11-26T23:44:16.210Z,102227.94
2022-11-26T23:46:47.322Z,102196.03
2022-11-26T23:49:17.414Z,102237.91
2022-11-26T23:51:49.991Z,102242.91
2022-11-26T23:54:19.948Z,102227.25
2022-11-26T23:56:49.854Z,102182.47
2022-11-26T23:59:21.043Z,102230.84
